Terminal Aerodrome Forecast
Issued by NWS

Home | Current Version | Previous Version | Text Only | Print | Product List | Glossary On
Versions: 1 2 3 4 5 6 7 8 9 10 11 12 13 14 15 16
000
FTUS43 KLSX 301619 AAC
TAFUIN
TAF AMD
KUIN 301619Z 3016/3112 06006KT P6SM SCT050
     FM310100 16006KT P6SM FEW040
     FM310700 VRB02KT 3SM BR SKC
     FM310900 VRB02KT 2SM BR SKC=

USA.gov is the U.S. government's official web portal to all federal, state and local government web resources and services.